createdAt,value
2022-07-29T00:02:50.265Z,99577.34
2022-07-29T00:06:52.376Z,99576.94
2022-07-29T00:10:54.051Z,99583.38
2022-07-29T00:14:56.712Z,99587.63
2022-07-29T00:19:01.867Z,99585.28
2022-07-29T00:23:04.270Z,99584.56
2022-07-29T00:27:06.057Z,99577.78
2022-07-29T00:31:09.090Z,99579.22
2022-07-29T00:35:29.586Z,99579.03
2022-07-29T00:39:31.479Z,99575.59
2022-07-29T00:43:33.298Z,99577.75
2022-07-29T00:47:34.903Z,99590.91
2022-07-29T00:51:37.920Z,99574.72
2022-07-29T00:55:39.792Z,99574.34
2022-07-29T00:59:41.497Z,99577.59
2022-07-29T01:03:43.175Z,99566.72
2022-07-29T01:07:46.711Z,99554.56
2022-07-29T01:11:49.474Z,99564.91
2022-07-29T01:15:55.649Z,99548.75
2022-07-29T01:20:07.085Z,99561.75
2022-07-29T01:24:17.534Z,99558.44
2022-07-29T01:28:45.911Z,99545.75
2022-07-29T01:32:55.535Z,99545.25
2022-07-29T01:37:12.080Z,99541.63
2022-07-29T01:41:21.548Z,99542.47
2022-07-29T01:45:34.952Z,99535.47
2022-07-29T01:49:41.081Z,99519.47
2022-07-29T01:53:56.054Z,99526.53
2022-07-29T01:57:59.934Z,99532.28
2022-07-29T02:02:02.600Z,99534.22
2022-07-29T02:06:07.105Z,99526.81
2022-07-29T02:10:11.601Z,99530.41
2022-07-29T02:14:15.725Z,99528.97
2022-07-29T02:18:19.429Z,99525.66
2022-07-29T02:22:22.144Z,99525.34
2022-07-29T02:26:27.179Z,99529.47
2022-07-29T02:30:31.406Z,99531.41
2022-07-29T02:34:35.429Z,99529.25
2022-07-29T02:38:53.711Z,99533.84
2022-07-29T02:42:55.978Z,99521.03
2022-07-29T02:47:31.576Z,99526.81
2022-07-29T02:51:52.118Z,99517.38
2022-07-29T02:56:00.147Z,99518.34
2022-07-29T03:00:08.162Z,99523.56
2022-07-29T03:04:12.755Z,99520.56
2022-07-29T03:08:16.804Z,99525.78
2022-07-29T03:12:19.209Z,99523.31
2022-07-29T03:16:22.029Z,99521.75
2022-07-29T03:20:23.798Z,99514.78
2022-07-29T03:24:29.745Z,99516.53
2022-07-29T03:28:32.605Z,99502.00
2022-07-29T03:32:34.688Z,99505.09
2022-07-29T03:36:36.395Z,99503.38
2022-07-29T03:40:49.825Z,99500.56
2022-07-29T03:44:53.686Z,99497.91
2022-07-29T03:49:01.015Z,99504.09
2022-07-29T03:53:04.165Z,99502.13
2022-07-29T03:57:07.075Z,99508.75
2022-07-29T04:01:08.979Z,99498.41
2022-07-29T04:05:14.421Z,99493.66
2022-07-29T04:09:18.173Z,99500.88
2022-07-29T04:13:21.206Z,99510.41
2022-07-29T04:17:23.553Z,99511.22
2022-07-29T04:21:25.691Z,99508.63
2022-07-29T04:25:27.470Z,99507.16
2022-07-29T04:29:29.127Z,99511.31
2022-07-29T04:33:30.728Z,99517.41
2022-07-29T04:37:32.482Z,99509.03
2022-07-29T04:41:34.653Z,99509.84
2022-07-29T04:45:36.830Z,99512.66
2022-07-29T04:49:39.685Z,99513.66
2022-07-29T04:53:41.228Z,99518.63
2022-07-29T04:57:42.891Z,99514.38
2022-07-29T05:01:44.567Z,99520.47
2022-07-29T05:05:46.336Z,99514.25
2022-07-29T05:09:48.075Z,99516.09
2022-07-29T05:13:49.730Z,99522.06
2022-07-29T05:17:51.350Z,99520.72
2022-07-29T05:21:52.971Z,99514.41
2022-07-29T05:25:54.567Z,99518.22
2022-07-29T05:29:56.162Z,99515.63
2022-07-29T05:33:57.853Z,99522.72
2022-07-29T05:37:59.414Z,99516.56
2022-07-29T05:42:01.029Z,99520.88
2022-07-29T05:46:02.783Z,99530.59
2022-07-29T05:50:05.521Z,99533.09
2022-07-29T05:54:07.200Z,99529.06
2022-07-29T05:58:08.789Z,99535.53
2022-07-29T06:02:10.549Z,99535.41
2022-07-29T06:06:12.405Z,99540.53
2022-07-29T06:10:14.339Z,99544.53
2022-07-29T06:14:16.329Z,99542.00
2022-07-29T06:18:18.509Z,99539.59
2022-07-29T06:22:20.158Z,99547.53
2022-07-29T06:26:31.007Z,99547.25
2022-07-29T06:30:34.237Z,99545.28
2022-07-29T06:34:36.891Z,99540.72
2022-07-29T06:38:42.092Z,99538.72
2022-07-29T06:42:47.184Z,99545.50
2022-07-29T06:46:51.105Z,99544.97
2022-07-29T06:50:52.703Z,99544.28
2022-07-29T06:54:56.056Z,99549.38
2022-07-29T06:58:57.696Z,99551.38
2022-07-29T07:02:59.289Z,99555.13
2022-07-29T07:07:00.951Z,99562.38
2022-07-29T07:11:02.748Z,99561.84
2022-07-29T07:15:04.880Z,99579.31
2022-07-29T07:19:06.545Z,99579.22
2022-07-29T07:23:08.352Z,99579.06
2022-07-29T07:27:10.044Z,99577.72
2022-07-29T07:31:13.126Z,99579.34
2022-07-29T07:35:15.425Z,99586.03
2022-07-29T07:39:17.243Z,99588.03
2022-07-29T07:43:20.074Z,99582.13
2022-07-29T07:47:24.521Z,99581.06
2022-07-29T07:51:30.184Z,99581.22
2022-07-29T07:55:47.489Z,99576.13
2022-07-29T07:59:54.272Z,99579.00
2022-07-29T08:03:56.055Z,99574.63
2022-07-29T08:07:57.773Z,99565.91
2022-07-29T08:12:00.490Z,99574.34
2022-07-29T08:16:04.321Z,99571.53
2022-07-29T08:20:08.118Z,99567.53
2022-07-29T08:24:29.846Z,99575.63
2022-07-29T08:28:31.866Z,99571.91
2022-07-29T08:32:52.507Z,99572.47
2022-07-29T08:36:56.696Z,99581.38
2022-07-29T08:40:59.468Z,99582.66
2022-07-29T08:45:01.350Z,99572.25
2022-07-29T08:49:03.169Z,99585.97
2022-07-29T08:53:06.015Z,99581.03
2022-07-29T08:57:07.722Z,99581.19
2022-07-29T09:01:13.914Z,99582.16
2022-07-29T09:05:16.849Z,99582.59
2022-07-29T09:09:18.778Z,99581.28
2022-07-29T09:13:20.424Z,99578.56
2022-07-29T09:17:53.025Z,99579.31
2022-07-29T09:22:03.059Z,99572.16
2022-07-29T09:26:09.588Z,99577.22
2022-07-29T09:30:15.266Z,99574.00
2022-07-29T09:34:30.733Z,99574.09
2022-07-29T09:38:33.631Z,99572.69
2022-07-29T09:42:35.348Z,99571.56
2022-07-29T09:46:37.277Z,99560.16
2022-07-29T09:50:43.310Z,99568.50
2022-07-29T09:54:45.941Z,99569.91
2022-07-29T09:58:47.709Z,99568.50
2022-07-29T10:02:49.738Z,99574.03
2022-07-29T10:07:05.274Z,99561.97
2022-07-29T10:11:15.704Z,99558.31
2022-07-29T10:15:17.498Z,99564.78
2022-07-29T10:19:19.487Z,99565.25
2022-07-29T10:23:21.488Z,99552.06
2022-07-29T10:27:23.186Z,99550.19
2022-07-29T10:31:37.801Z,99554.69
2022-07-29T10:35:39.668Z,99547.38
2022-07-29T10:40:23.667Z,99557.38
2022-07-29T10:44:26.785Z,99554.00
2022-07-29T10:48:28.533Z,99549.13
2022-07-29T10:52:51.596Z,99547.56
2022-07-29T10:56:53.305Z,99548.84
2022-07-29T11:00:57.580Z,99534.59
2022-07-29T11:05:01.371Z,99526.16
2022-07-29T11:09:25.589Z,99518.28
2022-07-29T11:13:49.397Z,99518.13
2022-07-29T11:17:54.475Z,99516.03
2022-07-29T11:21:58.533Z,99523.88
2022-07-29T11:26:23.085Z,99513.31
2022-07-29T11:30:52.207Z,99527.97
2022-07-29T11:35:17.208Z,99532.06
2022-07-29T11:39:27.062Z,99515.75
2022-07-29T11:43:53.541Z,99522.63
2022-07-29T11:48:05.249Z,99517.28
2022-07-29T11:52:08.203Z,99512.88
2022-07-29T11:56:17.044Z,99509.16
2022-07-29T12:00:23.545Z,99497.56
2022-07-29T12:04:27.632Z,99504.75
2022-07-29T12:08:30.539Z,99496.81
2022-07-29T12:12:32.274Z,99501.06
2022-07-29T12:16:38.344Z,99488.25
2022-07-29T12:20:40.392Z,99491.69
2022-07-29T12:24:45.704Z,99482.66
2022-07-29T12:28:52.796Z,99485.09
2022-07-29T12:32:56.569Z,99481.44
2022-07-29T12:36:58.545Z,99488.25
2022-07-29T12:41:00.450Z,99478.75
2022-07-29T12:45:02.593Z,99464.25
2022-07-29T12:49:04.747Z,99457.25
2022-07-29T12:53:12.651Z,99455.19
2022-07-29T12:57:20.082Z,99452.88
2022-07-29T13:01:22.598Z,99455.97
2022-07-29T13:05:25.320Z,99451.44
2022-07-29T13:09:41.410Z,99450.34
2022-07-29T13:14:06.626Z,99446.25
2022-07-29T13:18:32.380Z,99454.47
2022-07-29T13:22:34.031Z,99446.16
2022-07-29T13:26:35.941Z,99452.84
2022-07-29T13:30:37.831Z,99453.72
2022-07-29T13:34:46.430Z,99452.75
2022-07-29T13:38:48.336Z,99446.66
2022-07-29T13:42:50.071Z,99451.66
2022-07-29T13:46:51.923Z,99443.81
2022-07-29T13:50:53.726Z,99450.53
2022-07-29T13:54:55.390Z,99458.88
2022-07-29T13:58:58.174Z,99447.06
2022-07-29T14:02:59.824Z,99444.84
2022-07-29T14:07:03.578Z,99453.53
2022-07-29T14:11:05.650Z,99460.28
2022-07-29T14:15:07.582Z,99458.25
2022-07-29T14:19:09.216Z,99456.50
2022-07-29T14:23:10.870Z,99456.50
2022-07-29T14:27:14.807Z,99456.72
2022-07-29T14:31:17.053Z,99463.44
2022-07-29T14:35:18.942Z,99467.25
2022-07-29T14:39:21.096Z,99473.13
2022-07-29T14:43:22.757Z,99475.94
2022-07-29T14:47:24.785Z,99466.56
2022-07-29T14:51:32.429Z,99470.28
2022-07-29T14:55:34.296Z,99469.94
2022-07-29T14:59:37.307Z,99461.03
2022-07-29T15:03:38.965Z,99460.91
2022-07-29T15:07:40.940Z,99465.16
2022-07-29T15:11:42.734Z,99457.50
2022-07-29T15:15:47.081Z,99460.97
2022-07-29T15:19:48.871Z,99462.34
2022-07-29T15:23:50.605Z,99462.69
2022-07-29T15:27:53.990Z,99465.03
2022-07-29T15:31:57.700Z,99460.13
2022-07-29T15:35:59.701Z,99474.91
2022-07-29T15:40:01.467Z,99480.69
2022-07-29T15:44:03.037Z,99479.47
2022-07-29T15:48:07.574Z,99482.31
2022-07-29T15:52:10.594Z,99483.94
2022-07-29T15:56:14.265Z,99473.38
2022-07-29T16:00:17.882Z,99468.06
2022-07-29T16:04:20.037Z,99452.94
2022-07-29T16:08:21.692Z,99460.66
2022-07-29T16:12:23.354Z,99468.34
2022-07-29T16:16:25.129Z,99474.38
2022-07-29T16:20:27.068Z,99470.19
2022-07-29T16:24:29.818Z,99496.00
2022-07-29T16:28:31.695Z,99509.13
2022-07-29T16:32:33.605Z,99507.81
2022-07-29T16:36:35.297Z,99507.28
2022-07-29T16:40:36.985Z,99500.19
2022-07-29T16:44:38.752Z,99515.28
2022-07-29T16:48:40.779Z,99510.53
2022-07-29T16:52:43.150Z,99520.53
2022-07-29T16:56:44.831Z,99512.53
2022-07-29T17:00:46.494Z,99522.06
2022-07-29T17:04:48.463Z,99517.72
2022-07-29T17:08:50.196Z,99523.06
2022-07-29T17:12:52.079Z,99535.13
2022-07-29T17:17:01.298Z,99537.06
2022-07-29T17:21:03.803Z,99548.59
2022-07-29T17:25:06.481Z,99547.41
2022-07-29T17:29:08.159Z,99550.34
2022-07-29T17:33:09.809Z,99543.94
2022-07-29T17:37:12.300Z,99544.28
2022-07-29T17:41:13.906Z,99539.97
2022-07-29T17:45:15.545Z,99534.50
2022-07-29T17:49:17.473Z,99531.63
2022-07-29T17:53:19.312Z,99551.66
2022-07-29T17:57:20.961Z,99561.19
2022-07-29T18:01:22.631Z,99577.78
2022-07-29T18:05:24.355Z,99588.50
2022-07-29T18:09:27.091Z,99599.41
2022-07-29T18:13:28.851Z,99602.66
2022-07-29T18:17:52.861Z,99602.22
2022-07-29T18:21:55.225Z,99610.13
2022-07-29T18:25:58.509Z,99622.09
2022-07-29T18:30:00.214Z,99622.38
2022-07-29T18:34:06.636Z,99626.22
2022-07-29T18:38:08.332Z,99630.28
2022-07-29T18:42:09.966Z,99638.47
2022-07-29T18:46:11.699Z,99629.63
2022-07-29T18:50:16.784Z,99634.25
2022-07-29T18:54:19.129Z,99646.38
2022-07-29T18:58:37.399Z,99651.75
2022-07-29T19:02:40.218Z,99659.72
2022-07-29T19:06:44.466Z,99673.00
2022-07-29T19:10:46.634Z,99670.38
2022-07-29T19:14:48.293Z,99651.28
2022-07-29T19:18:51.873Z,99653.34
2022-07-29T19:22:53.517Z,99649.09
2022-07-29T19:26:56.522Z,99645.00
2022-07-29T19:30:58.919Z,99642.72
2022-07-29T19:35:19.565Z,99642.44
2022-07-29T19:39:35.285Z,99651.22
2022-07-29T19:43:49.976Z,99657.00
2022-07-29T19:48:01.064Z,99667.13
2022-07-29T19:52:03.486Z,99672.06
2022-07-29T21:17:47.255Z,99756.50
2022-07-29T21:21:48.843Z,99759.94
2022-07-29T21:25:50.418Z,99760.06
2022-07-29T21:29:51.990Z,99756.41
2022-07-29T21:33:54.179Z,99764.91
2022-07-29T21:37:55.836Z,99780.59
2022-07-29T21:41:57.524Z,99783.63
2022-07-29T21:46:00.299Z,99779.03
2022-07-29T21:50:01.990Z,99784.97
2022-07-29T21:54:04.215Z,99786.84
2022-07-29T21:58:06.241Z,99781.28
2022-07-29T22:02:08.029Z,99781.38
2022-07-29T22:06:11.328Z,99780.47
2022-07-29T22:10:20.515Z,99783.06
2022-07-29T22:14:22.327Z,99776.75
2022-07-29T22:18:23.948Z,99776.94
2022-07-29T22:22:25.634Z,99788.31
2022-07-29T22:26:27.360Z,99774.44
2022-07-29T22:30:29.019Z,99777.25
2022-07-29T22:34:31.758Z,99778.91
2022-07-29T22:38:39.526Z,99780.22
2022-07-29T22:42:43.914Z,99778.06
2022-07-29T22:46:45.744Z,99786.69
2022-07-29T22:50:47.329Z,99784.19
2022-07-29T22:54:48.959Z,99775.16
2022-07-29T22:58:50.894Z,99778.78
2022-07-29T23:02:52.467Z,99782.72
2022-07-29T23:06:54.055Z,99781.72
2022-07-29T23:10:55.678Z,99786.25
2022-07-29T23:14:57.250Z,99786.88
2022-07-29T23:18:58.834Z,99789.38
2022-07-29T23:23:00.642Z,99798.16
2022-07-29T23:27:02.675Z,99791.84
2022-07-29T23:31:04.558Z,99789.84
2022-07-29T23:35:07.164Z,99802.38
2022-07-29T23:39:11.395Z,99810.44
2022-07-29T23:43:13.002Z,99801.59
2022-07-29T23:47:14.564Z,99796.22
2022-07-29T23:51:16.241Z,99803.84
2022-07-29T23:55:37.253Z,99803.94
2022-07-29T23:59:40.257Z,99800.31
